Yvonne K. — PBLX — position and weather

sailwx.info

Track history (hours):
 
Tides and Currents Weather Stations Pressure Air Temp Water Temp Dewpoint Dewpoint Depression Visibility Wind Speed Wind Dir Waves Ship Positions

Yvonne K.

Last reported at 2014-Dec-16 19:24 UTC. Time now 2014-Dec-18 13:29 UTC.
Position N 50°26' W 002°17'.

Length 90 m; draft 5.6 m.

Type: Cargo ship. MMSI: 244948000.

Date/timePositionNaut miles runAvg speedWind from/ knotsBaromVisibWave heightAir tempDewpointWater temp
2014-Dec-16 19:24N 50°26' W 002°17'13 9.6
2014-Dec-16 18:05N 50°33' W 002°01'5 9.1
2014-Dec-16 17:33N 50°36' W 001°55'7 7.1
2014-Dec-16 16:32N 50°43' W 001°59'0 0.0
2014-Dec-16 15:32N 50°43' W 001°59'0 0.0
2014-Dec-16 11:14N 50°43' W 001°59'0 0.0
2014-Dec-16 10:32N 50°43' W 001°59'0 0.0
2014-Dec-16 09:32N 50°43' W 001°59'0 0.0
2014-Dec-15 22:32N 50°43' W 001°59'0 0.0
2014-Dec-15 21:32N 50°43' W 001°59'0 0.0
2014-Dec-15 20:26N 50°43' W 001°59'0 0.0
2014-Dec-15 19:32N 50°43' W 001°59'0 0.0
2014-Dec-15 18:32N 50°43' W 001°59'0 0.0
2014-Dec-15 17:32N 50°43' W 001°59'0 0.0
2014-Dec-15 16:32N 50°43' W 001°59'0 0.0
2014-Dec-15 12:33N 50°43' W 001°59'0 0.0
2014-Dec-15 11:32N 50°43' W 001°59'0 0.0
2014-Dec-15 10:32N 50°43' W 001°59'0 0.0
2014-Dec-15 09:32N 50°43' W 001°59'0 0.0
2014-Dec-15 04:32N 50°43' W 001°59'0 0.0
2014-Dec-14 21:32N 50°43' W 001°59'0 0.0
2014-Dec-14 20:32N 50°43' W 001°59'0 0.0
2014-Dec-14 19:32N 50°43' W 001°59'0 0.0
2014-Dec-14 18:32N 50°43' W 001°59'0 0.0
2014-Dec-14 17:32N 50°43' W 001°59'0 0.0
2014-Dec-14 16:32N 50°43' W 001°59'0 0.0
2014-Dec-14 15:32N 50°43' W 001°59'0 0.0
2014-Dec-14 14:32N 50°43' W 001°59'0 0.0
2014-Dec-14 13:32N 50°43' W 001°59'0 0.0
2014-Dec-14 12:32N 50°43' W 001°59'0 0.0
2014-Dec-14 11:32N 50°43' W 001°59'0 0.1
2014-Dec-14 10:33N 50°43' W 001°59'5 4.9
2014-Dec-14 09:33N 50°39' W 001°54'55 7.9
2014-Dec-14 02:33N 50°16' W 003°14'1611.3
2014-Dec-14 01:07N 50°11' W 003°38'75 5.5
2014-Dec-13 11:33N 50°37' W 005°28'93 9.3
2014-Dec-13 01:33N 51°21' W 003°17'1812.2
2014-Dec-13 00:05N 51°28' W 002°52'611.0
2014-Dec-12 23:33N 51°30' W 002°43'0 0.2
2014-Dec-12 22:33N 51°30' W 002°42'0 0.0
2014-Dec-12 21:33N 51°30' W 002°42'0 0.0
2014-Dec-12 20:33N 51°30' W 002°42'0 0.0
2014-Dec-12 19:33N 51°30' W 002°42'0 0.0
2014-Dec-12 18:33N 51°30' W 002°42'0 0.0
2014-Dec-12 17:33N 51°30' W 002°42'0 0.0
2014-Dec-12 16:33N 51°30' W 002°42'0 0.0
2014-Dec-12 15:31N 51°30' W 002°42'0 0.0
2014-Dec-12 14:31N 51°30' W 002°42'0 0.0
2014-Dec-12 13:31N 51°30' W 002°42'0 0.0
2014-Dec-12 12:31N 51°30' W 002°42'0 0.0
2014-Dec-12 11:32N 51°30' W 002°42'0 0.0
2014-Dec-12 10:32N 51°30' W 002°42'0 0.0
2014-Dec-12 09:32N 51°30' W 002°42'0 0.0
2014-Dec-12 08:32N 51°30' W 002°42'0 0.0
2014-Dec-12 07:33N 51°30' W 002°42'0 0.0
2014-Dec-12 06:33N 51°30' W 002°42'0 0.0
2014-Dec-12 05:32N 51°30' W 002°42'0 0.0
2014-Dec-12 04:33N 51°30' W 002°42'0 0.0
2014-Dec-12 03:34N 51°30' W 002°42'0 0.0
2014-Dec-12 02:34N 51°30' W 002°42'0 0.0
2014-Dec-12 01:31N 51°30' W 002°42'0 0.0
2014-Dec-12 00:32N 51°30' W 002°42'0 0.0
2014-Dec-11 23:32N 51°30' W 002°42'0 0.0
2014-Dec-11 22:31N 51°30' W 002°42'0 0.0
2014-Dec-11 21:31N 51°30' W 002°42'0 0.0
2014-Dec-11 20:31N 51°30' W 002°42'0 0.0
2014-Dec-11 19:33N 51°30' W 002°42'0 0.0
2014-Dec-11 18:33N 51°30' W 002°42'0 0.0
2014-Dec-11 17:32N 51°30' W 002°42'0 0.0
2014-Dec-11 16:32N 51°30' W 002°42'0 0.0
2014-Dec-11 15:34N 51°30' W 002°42'0 0.0
2014-Dec-11 14:34N 51°30' W 002°42'0 0.0
2014-Dec-11 13:34N 51°30' W 002°42'0 0.0
2014-Dec-11 12:34N 51°30' W 002°42'0 0.0
2014-Dec-11 11:32N 51°30' W 002°42'0 0.0
2014-Dec-11 10:32N 51°30' W 002°42'0 0.0
2014-Dec-11 09:32N 51°30' W 002°42'0 0.0
2014-Dec-11 08:32N 51°30' W 002°42'0 0.0
2014-Dec-11 07:32N 51°30' W 002°42'0 0.0
2014-Dec-11 06:32N 51°30' W 002°42'0 0.0
2014-Dec-11 05:34N 51°30' W 002°42'0 0.0
2014-Dec-11 04:33N 51°30' W 002°42'0 0.0
2014-Dec-11 03:34N 51°30' W 002°42'0 0.0
2014-Dec-11 02:32N 51°30' W 002°42'0 0.0
2014-Dec-11 01:32N 51°30' W 002°42'0 0.0
2014-Dec-11 00:32N 51°30' W 002°42'0 0.0
2014-Dec-10 23:32N 51°30' W 002°42'0 0.0
2014-Dec-10 22:33N 51°30' W 002°42'0 0.0
2014-Dec-10 21:33N 51°30' W 002°42'0 0.0
2014-Dec-10 20:33N 51°30' W 002°42'0 0.0
2014-Dec-10 19:31N 51°30' W 002°42'0 0.0
2014-Dec-10 18:34N 51°30' W 002°42'0 0.0
2014-Dec-10 17:34N 51°30' W 002°42'0 0.0
2014-Dec-10 16:34N 51°30' W 002°42'0 0.0
2014-Dec-10 15:34N 51°30' W 002°42'0 0.0
2014-Dec-10 14:34N 51°30' W 002°42'0 0.0
2014-Dec-10 13:34N 51°30' W 002°42'0 0.0
2014-Dec-10 12:33N 51°30' W 002°42'0 0.0
2014-Dec-10 11:34N 51°30' W 002°42'0 0.0
2014-Dec-10 10:33N 51°30' W 002°42'1 0.5
2014-Dec-10 09:33N 51°31' W 002°42'0 0.0
2014-Dec-10 08:33N 51°31' W 002°42'0 0.0
2014-Dec-10 07:33N 51°31' W 002°42'1 0.6
2014-Dec-10 06:33N 51°30' W 002°43'6 6.5
2014-Dec-10 05:33N 51°28' W 002°53'1312.1
2014-Dec-10 04:29N 51°21' W 003°10'  
Track history (hours):
 
Tides and Currents Weather Stations Pressure Air Temp Water Temp Dewpoint Dewpoint Depression Visibility Wind Speed Wind Dir Waves Ship Positions

Yvonne K.

Last reported at 2014-Dec-16 19:24 UTC. Time now 2014-Dec-18 13:29 UTC.
Position N 50°26' W 002°17'.

Length 90 m; draft 5.6 m.

Type: Cargo ship. MMSI: 244948000.

Date/timePositionNaut miles runAvg speedWind from/ knotsBaromVisibWave heightAir tempDewpointWater temp
2014-Dec-16 19:24N 50°26' W 002°17'13 9.6
2014-Dec-16 18:05N 50°33' W 002°01'5 9.1
2014-Dec-16 17:33N 50°36' W 001°55'7 7.1
2014-Dec-16 16:32N 50°43' W 001°59'0 0.0
2014-Dec-16 15:32N 50°43' W 001°59'0 0.0
2014-Dec-16 11:14N 50°43' W 001°59'0 0.0
2014-Dec-16 10:32N 50°43' W 001°59'0 0.0
2014-Dec-16 09:32N 50°43' W 001°59'0 0.0
2014-Dec-15 22:32N 50°43' W 001°59'0 0.0
2014-Dec-15 21:32N 50°43' W 001°59'0 0.0
2014-Dec-15 20:26N 50°43' W 001°59'0 0.0
2014-Dec-15 19:32N 50°43' W 001°59'0 0.0
2014-Dec-15 18:32N 50°43' W 001°59'0 0.0
2014-Dec-15 17:32N 50°43' W 001°59'0 0.0
2014-Dec-15 16:32N 50°43' W 001°59'0 0.0
2014-Dec-15 12:33N 50°43' W 001°59'0 0.0
2014-Dec-15 11:32N 50°43' W 001°59'0 0.0
2014-Dec-15 10:32N 50°43' W 001°59'0 0.0
2014-Dec-15 09:32N 50°43' W 001°59'0 0.0
2014-Dec-15 04:32N 50°43' W 001°59'0 0.0
2014-Dec-14 21:32N 50°43' W 001°59'0 0.0
2014-Dec-14 20:32N 50°43' W 001°59'0 0.0
2014-Dec-14 19:32N 50°43' W 001°59'0 0.0
2014-Dec-14 18:32N 50°43' W 001°59'0 0.0
2014-Dec-14 17:32N 50°43' W 001°59'0 0.0
2014-Dec-14 16:32N 50°43' W 001°59'0 0.0
2014-Dec-14 15:32N 50°43' W 001°59'0 0.0
2014-Dec-14 14:32N 50°43' W 001°59'0 0.0
2014-Dec-14 13:32N 50°43' W 001°59'0 0.0
2014-Dec-14 12:32N 50°43' W 001°59'0 0.0
2014-Dec-14 11:32N 50°43' W 001°59'0 0.1
2014-Dec-14 10:33N 50°43' W 001°59'5 4.9
2014-Dec-14 09:33N 50°39' W 001°54'55 7.9
2014-Dec-14 02:33N 50°16' W 003°14'1611.3
2014-Dec-14 01:07N 50°11' W 003°38'75 5.5
2014-Dec-13 11:33N 50°37' W 005°28'93 9.3
2014-Dec-13 01:33N 51°21' W 003°17'1812.2
2014-Dec-13 00:05N 51°28' W 002°52'611.0
2014-Dec-12 23:33N 51°30' W 002°43'0 0.2
2014-Dec-12 22:33N 51°30' W 002°42'0 0.0
2014-Dec-12 21:33N 51°30' W 002°42'0 0.0
2014-Dec-12 20:33N 51°30' W 002°42'0 0.0
2014-Dec-12 19:33N 51°30' W 002°42'0 0.0
2014-Dec-12 18:33N 51°30' W 002°42'0 0.0
2014-Dec-12 17:33N 51°30' W 002°42'0 0.0
2014-Dec-12 16:33N 51°30' W 002°42'0 0.0
2014-Dec-12 15:31N 51°30' W 002°42'0 0.0
2014-Dec-12 14:31N 51°30' W 002°42'0 0.0
2014-Dec-12 13:31N 51°30' W 002°42'0 0.0
2014-Dec-12 12:31N 51°30' W 002°42'0 0.0
2014-Dec-12 11:32N 51°30' W 002°42'0 0.0
2014-Dec-12 10:32N 51°30' W 002°42'0 0.0
2014-Dec-12 09:32N 51°30' W 002°42'0 0.0
2014-Dec-12 08:32N 51°30' W 002°42'0 0.0
2014-Dec-12 07:33N 51°30' W 002°42'0 0.0
2014-Dec-12 06:33N 51°30' W 002°42'0 0.0
2014-Dec-12 05:32N 51°30' W 002°42'0 0.0
2014-Dec-12 04:33N 51°30' W 002°42'0 0.0
2014-Dec-12 03:34N 51°30' W 002°42'0 0.0
2014-Dec-12 02:34N 51°30' W 002°42'0 0.0
2014-Dec-12 01:31N 51°30' W 002°42'0 0.0
2014-Dec-12 00:32N 51°30' W 002°42'0 0.0
2014-Dec-11 23:32N 51°30' W 002°42'0 0.0
2014-Dec-11 22:31N 51°30' W 002°42'0 0.0
2014-Dec-11 21:31N 51°30' W 002°42'0 0.0
2014-Dec-11 20:31N 51°30' W 002°42'0 0.0
2014-Dec-11 19:33N 51°30' W 002°42'0 0.0
2014-Dec-11 18:33N 51°30' W 002°42'0 0.0
2014-Dec-11 17:32N 51°30' W 002°42'0 0.0
2014-Dec-11 16:32N 51°30' W 002°42'0 0.0
2014-Dec-11 15:34N 51°30' W 002°42'0 0.0
2014-Dec-11 14:34N 51°30' W 002°42'0 0.0
2014-Dec-11 13:34N 51°30' W 002°42'0 0.0
2014-Dec-11 12:34N 51°30' W 002°42'0 0.0
2014-Dec-11 11:32N 51°30' W 002°42'0 0.0
2014-Dec-11 10:32N 51°30' W 002°42'0 0.0
2014-Dec-11 09:32N 51°30' W 002°42'0 0.0
2014-Dec-11 08:32N 51°30' W 002°42'0 0.0
2014-Dec-11 07:32N 51°30' W 002°42'0 0.0
2014-Dec-11 06:32N 51°30' W 002°42'0 0.0
2014-Dec-11 05:34N 51°30' W 002°42'0 0.0
2014-Dec-11 04:33N 51°30' W 002°42'0 0.0
2014-Dec-11 03:34N 51°30' W 002°42'0 0.0
2014-Dec-11 02:32N 51°30' W 002°42'0 0.0
2014-Dec-11 01:32N 51°30' W 002°42'0 0.0
2014-Dec-11 00:32N 51°30' W 002°42'0 0.0
2014-Dec-10 23:32N 51°30' W 002°42'0 0.0
2014-Dec-10 22:33N 51°30' W 002°42'0 0.0
2014-Dec-10 21:33N 51°30' W 002°42'0 0.0
2014-Dec-10 20:33N 51°30' W 002°42'0 0.0
2014-Dec-10 19:31N 51°30' W 002°42'0 0.0
2014-Dec-10 18:34N 51°30' W 002°42'0 0.0
2014-Dec-10 17:34N 51°30' W 002°42'0 0.0
2014-Dec-10 16:34N 51°30' W 002°42'0 0.0
2014-Dec-10 15:34N 51°30' W 002°42'0 0.0
2014-Dec-10 14:34N 51°30' W 002°42'0 0.0
2014-Dec-10 13:34N 51°30' W 002°42'0 0.0
2014-Dec-10 12:33N 51°30' W 002°42'0 0.0
2014-Dec-10 11:34N 51°30' W 002°42'0 0.0
2014-Dec-10 10:33N 51°30' W 002°42'1 0.5
2014-Dec-10 09:33N 51°31' W 002°42'0 0.0
2014-Dec-10 08:33N 51°31' W 002°42'0 0.0
2014-Dec-10 07:33N 51°31' W 002°42'1 0.6
2014-Dec-10 06:33N 51°30' W 002°43'6 6.5
2014-Dec-10 05:33N 51°28' W 002°53'1312.1
2014-Dec-10 04:29N 51°21' W 003°10'  

Dump ship's entire track history